sensor_id;sensor_type;location;lat;lon;timestamp;pressure;altitude;pressure_sealevel;temperature;humidity
10482;BME280;5288;42.334;23.876;2023-07-20T00:00:07;55796.50;;;-140.56;57.52
10482;BME280;5288;42.334;23.876;2023-07-20T00:02:36;55804.41;;;-140.56;58.58
10482;BME280;5288;42.334;23.876;2023-07-20T00:05:03;55794.53;;;-140.56;58.92
10482;BME280;5288;42.334;23.876;2023-07-20T00:07:40;55861.72;;;-140.56;60.25
10482;BME280;5288;42.334;23.876;2023-07-20T00:10:20;55839.97;;;-140.56;60.19
10482;BME280;5288;42.334;23.876;2023-07-20T00:12:47;55820.22;;;-140.56;60.98
10482;BME280;5288;42.334;23.876;2023-07-20T00:15:14;55812.31;;;-140.56;61.20
10482;BME280;5288;42.334;23.876;2023-07-20T00:17:43;55820.22;;;-140.56;63.37
10482;BME280;5288;42.334;23.876;2023-07-20T00:20:12;55859.75;;;-140.56;63.08
10482;BME280;5288;42.334;23.876;2023-07-20T00:22:38;55843.94;;;-140.56;62.65
10482;BME280;5288;42.334;23.876;2023-07-20T00:25:06;55830.09;;;-140.56;63.79
10482;BME280;5288;42.334;23.876;2023-07-20T00:27:33;55855.78;;;-140.56;63.50
10482;BME280;5288;42.334;23.876;2023-07-20T00:30:00;55834.06;;;-140.56;61.23
10482;BME280;5288;42.334;23.876;2023-07-20T00:32:27;55867.63;;;-140.56;61.10
10482;BME280;5288;42.334;23.876;2023-07-20T00:34:55;55881.47;;;-140.56;64.88
10482;BME280;5288;42.334;23.876;2023-07-20T00:37:22;55839.97;;;-140.56;63.32
10482;BME280;5288;42.334;23.876;2023-07-20T00:39:49;55861.72;;;-140.56;64.01
10482;BME280;5288;42.334;23.876;2023-07-20T00:42:16;55859.75;;;-140.56;63.45
10482;BME280;5288;42.334;23.876;2023-07-20T00:44:43;55853.81;;;-140.56;63.65
10482;BME280;5288;42.334;23.876;2023-07-20T00:47:10;55883.44;;;-140.56;64.62
10482;BME280;5288;42.334;23.876;2023-07-20T00:49:37;55893.34;;;-140.56;64.64
10482;BME280;5288;42.334;23.876;2023-07-20T00:52:07;55883.44;;;-140.56;65.09
10482;BME280;5288;42.334;23.876;2023-07-20T00:54:34;55893.34;;;-140.56;65.45
10482;BME280;5288;42.334;23.876;2023-07-20T00:57:02;55883.44;;;-140.56;68.21
10482;BME280;5288;42.334;23.876;2023-07-20T00:59:29;55855.78;;;-140.56;66.79
10482;BME280;5288;42.334;23.876;2023-07-20T01:01:56;55901.22;;;-140.56;67.62
10482;BME280;5288;42.334;23.876;2023-07-20T01:04:23;55875.53;;;-140.56;67.83
10482;BME280;5288;42.334;23.876;2023-07-20T01:07:06;55843.94;;;-140.56;64.24
10482;BME280;5288;42.334;23.876;2023-07-20T01:09:44;55849.84;;;-140.56;63.92
10482;BME280;5288;42.334;23.876;2023-07-20T01:12:18;55830.09;;;-140.56;63.05
10482;BME280;5288;42.334;23.876;2023-07-20T01:14:50;55859.75;;;-140.56;63.13
10482;BME280;5288;42.334;23.876;2023-07-20T01:17:17;55905.19;;;-140.56;65.09
10482;BME280;5288;42.334;23.876;2023-07-20T01:19:44;55863.69;;;-140.56;64.92
10482;BME280;5288;42.334;23.876;2023-07-20T01:22:25;55855.78;;;-140.56;68.06
10482;BME280;5288;42.334;23.876;2023-07-20T01:25:21;55883.44;;;-140.56;66.79
10482;BME280;5288;42.334;23.876;2023-07-20T01:28:18;55915.06;;;-140.56;65.51
10482;BME280;5288;42.334;23.876;2023-07-20T01:30:59;55869.63;;;-140.56;65.15
10482;BME280;5288;42.334;23.876;2023-07-20T01:33:32;55899.25;;;-140.56;65.65
10482;BME280;5288;42.334;23.876;2023-07-20T01:36:00;55909.13;;;-140.56;66.43
10482;BME280;5288;42.334;23.876;2023-07-20T01:38:28;55901.22;;;-140.56;66.49
10482;BME280;5288;42.334;23.876;2023-07-20T01:40:55;55893.34;;;-140.56;67.58
10482;BME280;5288;42.334;23.876;2023-07-20T01:43:24;55907.16;;;-140.56;67.92
10482;BME280;5288;42.334;23.876;2023-07-20T01:45:50;55922.97;;;-140.56;68.12
10482;BME280;5288;42.334;23.876;2023-07-20T01:48:17;55926.94;;;-140.56;68.73
10482;BME280;5288;42.334;23.876;2023-07-20T01:50:46;55928.91;;;-140.56;69.18
10482;BME280;5288;42.334;23.876;2023-07-20T01:53:13;55950.63;;;-140.56;70.36
10482;BME280;5288;42.334;23.876;2023-07-20T01:55:40;55903.22;;;-140.56;71.89
10482;BME280;5288;42.334;23.876;2023-07-20T01:58:07;55944.72;;;-140.56;71.92
10482;BME280;5288;42.334;23.876;2023-07-20T02:00:34;55954.59;;;-140.56;72.46
10482;BME280;5288;42.334;23.876;2023-07-20T02:03:00;55932.84;;;-140.56;73.02
10482;BME280;5288;42.334;23.876;2023-07-20T02:05:27;55936.81;;;-140.56;73.41
10482;BME280;5288;42.334;23.876;2023-07-20T02:07:56;55940.75;;;-140.56;72.95
10482;BME280;5288;42.334;23.876;2023-07-20T02:10:23;55932.84;;;-140.56;73.77
10482;BME280;5288;42.334;23.876;2023-07-20T02:12:50;55982.25;;;-140.56;75.07
10482;BME280;5288;42.334;23.876;2023-07-20T02:15:17;55936.81;;;-140.56;75.87
10482;BME280;5288;42.334;23.876;2023-07-20T02:17:44;55968.41;;;-140.56;75.97
10482;BME280;5288;42.334;23.876;2023-07-20T02:20:11;55936.81;;;-140.56;75.72
10482;BME280;5288;42.334;23.876;2023-07-20T02:22:39;55968.41;;;-140.56;75.53
10482;BME280;5288;42.334;23.876;2023-07-20T02:25:08;55950.63;;;-140.56;75.44
10482;BME280;5288;42.334;23.876;2023-07-20T02:27:36;55942.72;;;-140.56;75.89
10482;BME280;5288;42.334;23.876;2023-07-20T02:30:05;55952.63;;;-140.56;75.96
10482;BME280;5288;42.334;23.876;2023-07-20T02:32:32;55976.31;;;-140.56;76.16
10482;BME280;5288;42.334;23.876;2023-07-20T02:34:59;55978.31;;;-140.56;76.76
10482;BME280;5288;42.334;23.876;2023-07-20T02:37:26;55952.63;;;-140.56;76.59
10482;BME280;5288;42.334;23.876;2023-07-20T02:39:53;55940.75;;;-140.56;77.36
10482;BME280;5288;42.334;23.876;2023-07-20T02:42:21;55970.41;;;-140.56;77.14
10482;BME280;5288;42.334;23.876;2023-07-20T02:44:51;55958.53;;;-140.56;77.02
10482;BME280;5288;42.334;23.876;2023-07-20T02:47:18;55954.59;;;-140.56;76.71
10482;BME280;5288;42.334;23.876;2023-07-20T02:49:45;56000.03;;;-140.56;76.90
10482;BME280;5288;42.334;23.876;2023-07-20T02:52:12;55992.13;;;-140.56;77.42
10482;BME280;5288;42.334;23.876;2023-07-20T02:54:39;55954.59;;;-140.56;77.78
10482;BME280;5288;42.334;23.876;2023-07-20T02:57:06;55974.34;;;-140.56;77.65
10482;BME280;5288;42.334;23.876;2023-07-20T02:59:34;55976.31;;;-140.56;77.40
10482;BME280;5288;42.334;23.876;2023-07-20T03:02:01;55964.47;;;-140.56;77.15
10482;BME280;5288;42.334;23.876;2023-07-20T03:04:28;55964.47;;;-140.56;76.54
10482;BME280;5288;42.334;23.876;2023-07-20T03:06:55;55948.66;;;-140.56;76.02
10482;BME280;5288;42.334;23.876;2023-07-20T03:09:22;55942.72;;;-140.56;74.70
10482;BME280;5288;42.334;23.876;2023-07-20T03:11:50;55968.41;;;-140.56;75.47
10482;BME280;5288;42.334;23.876;2023-07-20T03:14:17;55926.94;;;-140.56;75.42
10482;BME280;5288;42.334;23.876;2023-07-20T03:16:45;55950.63;;;-140.56;74.97
10482;BME280;5288;42.334;23.876;2023-07-20T03:19:12;55972.38;;;-140.56;74.37
10482;BME280;5288;42.334;23.876;2023-07-20T03:21:39;55944.72;;;-140.56;75.28
10482;BME280;5288;42.334;23.876;2023-07-20T03:24:06;55970.41;;;-140.56;75.32
10482;BME280;5288;42.334;23.876;2023-07-20T03:26:34;55946.69;;;-140.56;76.20
10482;BME280;5288;42.334;23.876;2023-07-20T03:29:02;55936.81;;;-140.56;77.10
10482;BME280;5288;42.334;23.876;2023-07-20T03:31:29;55984.22;;;-140.56;77.43
10482;BME280;5288;42.334;23.876;2023-07-20T03:33:57;55938.78;;;-140.56;77.26
10482;BME280;5288;42.334;23.876;2023-07-20T03:36:24;55970.41;;;-140.56;76.84
10482;BME280;5288;42.334;23.876;2023-07-20T03:38:51;55942.72;;;-140.56;76.93
10482;BME280;5288;42.334;23.876;2023-07-20T03:41:18;55966.44;;;-140.56;77.05
10482;BME280;5288;42.334;23.876;2023-07-20T03:43:45;55954.59;;;-140.56;77.13
10482;BME280;5288;42.334;23.876;2023-07-20T03:46:12;55968.41;;;-140.56;77.83
10482;BME280;5288;42.334;23.876;2023-07-20T03:48:39;55972.38;;;-140.56;77.75
10482;BME280;5288;42.334;23.876;2023-07-20T03:51:07;55962.50;;;-140.56;77.27
10482;BME280;5288;42.334;23.876;2023-07-20T03:53:34;55960.53;;;-140.56;77.35
10482;BME280;5288;42.334;23.876;2023-07-20T03:56:01;55968.41;;;-140.56;77.03
10482;BME280;5288;42.334;23.876;2023-07-20T03:58:28;55954.59;;;-140.56;77.25
10482;BME280;5288;42.334;23.876;2023-07-20T04:00:57;55980.28;;;-140.56;77.70
10482;BME280;5288;42.334;23.876;2023-07-20T04:03:24;55962.50;;;-140.56;78.14
10482;BME280;5288;42.334;23.876;2023-07-20T04:05:53;55944.72;;;-140.56;78.42
10482;BME280;5288;42.334;23.876;2023-07-20T04:08:23;55958.53;;;-140.56;77.90
10482;BME280;5288;42.334;23.876;2023-07-20T04:10:51;55938.78;;;-140.56;77.44
10482;BME280;5288;42.334;23.876;2023-07-20T04:13:18;55968.41;;;-140.56;77.06
10482;BME280;5288;42.334;23.876;2023-07-20T04:15:45;55980.28;;;-140.56;76.99
10482;BME280;5288;42.334;23.876;2023-07-20T04:18:12;55986.22;;;-140.56;77.46
10482;BME280;5288;42.334;23.876;2023-07-20T04:20:38;55952.63;;;-140.56;77.79
10482;BME280;5288;42.334;23.876;2023-07-20T04:23:05;55928.91;;;-140.56;76.87
10482;BME280;5288;42.334;23.876;2023-07-20T04:25:34;55956.56;;;-140.56;76.82
10482;BME280;5288;42.334;23.876;2023-07-20T04:28:05;55978.31;;;-140.56;76.94
10482;BME280;5288;42.334;23.876;2023-07-20T04:30:34;55962.50;;;-140.56;77.38
10482;BME280;5288;42.334;23.876;2023-07-20T04:33:02;55952.63;;;-140.56;77.56
10482;BME280;5288;42.334;23.876;2023-07-20T04:35:51;55970.41;;;-140.56;77.73
10482;BME280;5288;42.334;23.876;2023-07-20T04:38:19;55938.78;;;-140.56;77.08
10482;BME280;5288;42.334;23.876;2023-07-20T04:40:49;55968.41;;;-140.56;77.45
10482;BME280;5288;42.334;23.876;2023-07-20T04:43:17;55952.63;;;-140.56;77.01
10482;BME280;5288;42.334;23.876;2023-07-20T04:45:44;55942.72;;;-140.56;76.26
10482;BME280;5288;42.334;23.876;2023-07-20T04:48:12;55970.41;;;-140.56;75.98
10482;BME280;5288;42.334;23.876;2023-07-20T04:50:41;55948.66;;;-140.56;76.49
10482;BME280;5288;42.334;23.876;2023-07-20T04:53:08;55934.81;;;-140.56;75.49
10482;BME280;5288;42.334;23.876;2023-07-20T04:55:36;55922.97;;;-140.56;74.91
10482;BME280;5288;42.334;23.876;2023-07-20T04:58:05;55942.72;;;-140.56;76.14
10482;BME280;5288;42.334;23.876;2023-07-20T05:00:33;55921.00;;;-140.56;75.74
10482;BME280;5288;42.334;23.876;2023-07-20T05:03:01;55948.66;;;-140.56;74.65
10482;BME280;5288;42.334;23.876;2023-07-20T05:05:28;55913.09;;;-140.56;73.85
10482;BME280;5288;42.334;23.876;2023-07-20T05:07:55;55903.22;;;-140.56;71.18
10482;BME280;5288;42.334;23.876;2023-07-20T05:10:27;55909.13;;;-140.56;71.69
10482;BME280;5288;42.334;23.876;2023-07-20T05:12:59;55926.94;;;-140.56;69.67
10482;BME280;5288;42.334;23.876;2023-07-20T05:15:27;55897.28;;;-140.56;69.58
10482;BME280;5288;42.334;23.876;2023-07-20T05:17:54;55915.06;;;-140.56;70.20
10482;BME280;5288;42.334;23.876;2023-07-20T05:20:21;55901.22;;;-140.56;69.78
10482;BME280;5288;42.334;23.876;2023-07-20T05:22:48;55907.16;;;-140.56;69.62
10482;BME280;5288;42.334;23.876;2023-07-20T05:25:15;55903.22;;;-140.56;69.33
10482;BME280;5288;42.334;23.876;2023-07-20T05:27:44;55917.03;;;-140.56;69.24
10482;BME280;5288;42.334;23.876;2023-07-20T05:30:12;55909.13;;;-140.56;68.69
10482;BME280;5288;42.334;23.876;2023-07-20T05:32:49;55881.47;;;-140.56;66.85
10482;BME280;5288;42.334;23.876;2023-07-20T05:35:21;55869.63;;;-140.56;67.81
10482;BME280;5288;42.334;23.876;2023-07-20T05:37:49;55881.47;;;-140.56;67.56
10482;BME280;5288;42.334;23.876;2023-07-20T05:40:16;55889.38;;;-140.56;66.57
10482;BME280;5288;42.334;23.876;2023-07-20T05:42:44;55867.63;;;-140.56;65.95
10482;BME280;5288;42.334;23.876;2023-07-20T05:45:13;55879.50;;;-140.56;64.36
10482;BME280;5288;42.334;23.876;2023-07-20T05:47:42;55869.63;;;-140.56;63.58
10482;BME280;5288;42.334;23.876;2023-07-20T05:50:10;55865.66;;;-140.56;62.47
10482;BME280;5288;42.334;23.876;2023-07-20T05:52:37;55855.78;;;-140.56;62.35
10482;BME280;5288;42.334;23.876;2023-07-20T05:55:05;55879.50;;;-140.56;61.58
10482;BME280;5288;42.334;23.876;2023-07-20T05:57:32;55861.72;;;-140.56;60.63
10482;BME280;5288;42.334;23.876;2023-07-20T05:59:59;55851.84;;;-140.56;60.53
10482;BME280;5288;42.334;23.876;2023-07-20T06:02:28;55814.28;;;-140.56;59.41
10482;BME280;5288;42.334;23.876;2023-07-20T06:04:56;55822.19;;;-140.56;60.09
10482;BME280;5288;42.334;23.876;2023-07-20T06:07:23;55802.44;;;-140.56;58.58
10482;BME280;5288;42.334;23.876;2023-07-20T06:09:50;55832.06;;;-140.56;58.16
10482;BME280;5288;42.334;23.876;2023-07-20T06:12:17;55808.34;;;-140.56;57.61
10482;BME280;5288;42.334;23.876;2023-07-20T06:14:44;55838.00;;;-140.56;56.38
10482;BME280;5288;42.334;23.876;2023-07-20T06:17:12;55838.00;;;-140.56;56.43
10482;BME280;5288;42.334;23.876;2023-07-20T06:19:38;55818.25;;;-140.56;55.75
10482;BME280;5288;42.334;23.876;2023-07-20T06:22:07;55820.22;;;-140.56;55.40
10482;BME280;5288;42.334;23.876;2023-07-20T06:24:34;55784.66;;;-140.56;55.34
10482;BME280;5288;42.334;23.876;2023-07-20T06:27:01;55772.78;;;-140.56;55.12
10482;BME280;5288;42.334;23.876;2023-07-20T06:29:28;55774.75;;;-140.56;54.19
10482;BME280;5288;42.334;23.876;2023-07-20T06:31:55;55788.59;;;-140.56;54.92
10482;BME280;5288;42.334;23.876;2023-07-20T06:34:22;55790.56;;;-140.56;54.78
10482;BME280;5288;42.334;23.876;2023-07-20T06:36:49;55776.75;;;-140.56;53.01
10482;BME280;5288;42.334;23.876;2023-07-20T06:39:18;55774.75;;;-140.56;52.92
10482;BME280;5288;42.334;23.876;2023-07-20T06:41:45;55770.81;;;-140.56;52.29
10482;BME280;5288;42.334;23.876;2023-07-20T06:44:12;55766.88;;;-140.56;52.77
10482;BME280;5288;42.334;23.876;2023-07-20T06:46:44;55762.91;;;-140.56;52.48
10482;BME280;5288;42.334;23.876;2023-07-20T06:49:24;55760.94;;;-140.56;51.45
10482;BME280;5288;42.334;23.876;2023-07-20T06:51:51;55749.06;;;-140.56;51.94
10482;BME280;5288;42.334;23.876;2023-07-20T06:54:20;55756.97;;;-140.56;51.74
10482;BME280;5288;42.334;23.876;2023-07-20T06:56:47;55731.28;;;-140.56;50.89
10482;BME280;5288;42.334;23.876;2023-07-20T06:59:14;55739.19;;;-140.56;51.43
10482;BME280;5288;42.334;23.876;2023-07-20T07:01:42;55766.88;;;-140.56;50.83
10482;BME280;5288;42.334;23.876;2023-07-20T07:04:09;55743.16;;;-140.56;50.32
10482;BME280;5288;42.334;23.876;2023-07-20T07:06:36;55727.34;;;-140.56;49.45
10482;BME280;5288;42.334;23.876;2023-07-20T07:09:03;55715.50;;;-140.56;49.15
10482;BME280;5288;42.334;23.876;2023-07-20T07:11:32;55745.13;;;-140.56;49.02
10482;BME280;5288;42.334;23.876;2023-07-20T07:13:59;55711.53;;;-140.56;48.60
10482;BME280;5288;42.334;23.876;2023-07-20T07:16:26;55739.19;;;-140.56;48.25
10482;BME280;5288;42.334;23.876;2023-07-20T07:18:54;55701.66;;;-140.56;47.45
10482;BME280;5288;42.334;23.876;2023-07-20T07:21:22;55713.50;;;-140.56;47.42
10482;BME280;5288;42.334;23.876;2023-07-20T07:23:51;55697.69;;;-140.56;46.85
10482;BME280;5288;42.334;23.876;2023-07-20T07:26:18;55705.59;;;-140.56;46.78
10482;BME280;5288;42.334;23.876;2023-07-20T07:28:47;55664.13;;;-140.56;46.21
10482;BME280;5288;42.334;23.876;2023-07-20T07:31:13;55697.69;;;-140.56;46.26
10482;BME280;5288;42.334;23.876;2023-07-20T07:33:40;55656.22;;;-140.56;43.94
10482;BME280;5288;42.334;23.876;2023-07-20T07:36:08;55685.84;;;-140.56;44.49
10482;BME280;5288;42.334;23.876;2023-07-20T07:38:35;55654.22;;;-140.56;45.42
10482;BME280;5288;42.334;23.876;2023-07-20T07:41:02;55677.94;;;-140.56;44.36
10482;BME280;5288;42.334;23.876;2023-07-20T07:43:29;55658.19;;;-140.56;44.46
10482;BME280;5288;42.334;23.876;2023-07-20T07:45:57;55642.38;;;-140.56;43.27
10482;BME280;5288;42.334;23.876;2023-07-20T07:48:24;55675.97;;;-140.56;43.08
10482;BME280;5288;42.334;23.876;2023-07-20T07:50:51;55656.22;;;-140.56;43.31
10482;BME280;5288;42.334;23.876;2023-07-20T07:53:18;55652.25;;;-140.56;42.07
10482;BME280;5288;42.334;23.876;2023-07-20T07:55:47;55634.47;;;-140.56;42.16
10482;BME280;5288;42.334;23.876;2023-07-20T07:58:14;55658.19;;;-140.56;42.81
10482;BME280;5288;42.334;23.876;2023-07-20T08:00:40;55642.38;;;-140.56;42.49
10482;BME280;5288;42.334;23.876;2023-07-20T08:03:10;55646.31;;;-140.56;41.48
10482;BME280;5288;42.334;23.876;2023-07-20T08:05:37;55591.00;;;-140.56;41.62
10482;BME280;5288;42.334;23.876;2023-07-20T08:08:04;55620.63;;;-140.56;41.26
10482;BME280;5288;42.334;23.876;2023-07-20T08:10:31;55602.84;;;-140.56;41.78
10482;BME280;5288;42.334;23.876;2023-07-20T08:12:58;55622.63;;;-140.56;40.53
10482;BME280;5288;42.334;23.876;2023-07-20T08:15:25;55618.66;;;-140.56;40.91
10482;BME280;5288;42.334;23.876;2023-07-20T08:17:52;55610.75;;;-140.56;40.96
10482;BME280;5288;42.334;23.876;2023-07-20T08:20:20;55594.94;;;-140.56;39.83
10482;BME280;5288;42.334;23.876;2023-07-20T08:22:52;55577.16;;;-140.56;40.35
10482;BME280;5288;42.334;23.876;2023-07-20T08:25:19;55608.78;;;-140.56;39.83
10482;BME280;5288;42.334;23.876;2023-07-20T08:27:46;55606.81;;;-140.56;38.38
10482;BME280;5288;42.334;23.876;2023-07-20T08:30:13;55587.06;;;-140.56;35.79
10482;BME280;5288;42.334;23.876;2023-07-20T08:32:40;55600.88;;;-140.56;36.49
10482;BME280;5288;42.334;23.876;2023-07-20T08:35:08;55583.09;;;-140.56;35.74
10482;BME280;5288;42.334;23.876;2023-07-20T08:37:36;55592.97;;;-140.56;34.92
10482;BME280;5288;42.334;23.876;2023-07-20T08:40:04;55585.06;;;-140.56;34.74
10482;BME280;5288;42.334;23.876;2023-07-20T08:42:34;55567.28;;;-140.56;36.16
10482;BME280;5288;42.334;23.876;2023-07-20T08:45:05;55563.34;;;-140.56;35.56
10482;BME280;5288;42.334;23.876;2023-07-20T08:47:33;55539.63;;;-140.56;35.71
10482;BME280;5288;42.334;23.876;2023-07-20T08:50:01;55559.38;;;-140.56;36.03
10482;BME280;5288;42.334;23.876;2023-07-20T08:52:33;55557.41;;;-140.56;36.42
10482;BME280;5288;42.334;23.876;2023-07-20T08:55:02;55557.41;;;-140.56;37.35
10482;BME280;5288;42.334;23.876;2023-07-20T08:57:31;55547.53;;;-140.56;35.82
10482;BME280;5288;42.334;23.876;2023-07-20T09:00:00;55575.19;;;-140.56;35.56
10482;BME280;5288;42.334;23.876;2023-07-20T09:02:30;55559.38;;;-140.56;35.59
10482;BME280;5288;42.334;23.876;2023-07-20T09:05:01;55515.91;;;-140.56;34.55
10482;BME280;5288;42.334;23.876;2023-07-20T09:07:29;55539.63;;;-140.56;33.89
10482;BME280;5288;42.334;23.876;2023-07-20T09:09:57;55511.97;;;-140.56;30.84
10482;BME280;5288;42.334;23.876;2023-07-20T09:12:26;55521.84;;;-140.56;31.30
10482;BME280;5288;42.334;23.876;2023-07-20T09:14:53;55545.56;;;-140.56;31.82
10482;BME280;5288;42.334;23.876;2023-07-20T09:17:19;55543.56;;;-140.56;30.82
10482;BME280;5288;42.334;23.876;2023-07-20T09:19:46;55498.13;;;-140.56;32.24
10482;BME280;5288;42.334;23.876;2023-07-20T09:22:14;55482.31;;;-140.56;34.05
10482;BME280;5288;42.334;23.876;2023-07-20T09:24:41;55498.13;;;-140.56;30.69
10482;BME280;5288;42.334;23.876;2023-07-20T09:27:12;55531.72;;;-140.56;31.23
10482;BME280;5288;42.334;23.876;2023-07-20T09:29:48;55496.16;;;-140.56;30.24
10482;BME280;5288;42.334;23.876;2023-07-20T09:32:18;55533.69;;;-140.56;30.25
10482;BME280;5288;42.334;23.876;2023-07-20T09:34:46;55513.94;;;-140.56;29.49
10482;BME280;5288;42.334;23.876;2023-07-20T09:37:13;55537.66;;;-140.56;30.14
10482;BME280;5288;42.334;23.876;2023-07-20T09:39:44;55521.84;;;-140.56;31.79
10482;BME280;5288;42.334;23.876;2023-07-20T09:42:11;55559.38;;;-140.56;32.35
10482;BME280;5288;42.334;23.876;2023-07-20T09:44:38;55547.53;;;-140.56;32.87
10482;BME280;5288;42.334;23.876;2023-07-20T09:47:08;55559.38;;;-140.56;33.29
10482;BME280;5288;42.334;23.876;2023-07-20T09:49:39;55563.34;;;-140.56;33.06
10482;BME280;5288;42.334;23.876;2023-07-20T09:52:08;55551.47;;;-140.56;32.81
10482;BME280;5288;42.334;23.876;2023-07-20T09:54:37;55565.31;;;-140.56;33.56
10482;BME280;5288;42.334;23.876;2023-07-20T09:57:07;55583.09;;;-140.56;34.38
10482;BME280;5288;42.334;23.876;2023-07-20T09:59:34;55551.47;;;-140.56;35.28
10482;BME280;5288;42.334;23.876;2023-07-20T10:02:02;55533.69;;;-140.56;35.10
10482;BME280;5288;42.334;23.876;2023-07-20T10:04:34;55559.38;;;-140.56;35.07
10482;BME280;5288;42.334;23.876;2023-07-20T10:07:05;55551.47;;;-140.56;34.87
10482;BME280;5288;42.334;23.876;2023-07-20T10:09:38;55559.38;;;-140.56;34.76
10482;BME280;5288;42.334;23.876;2023-07-20T10:12:08;55547.53;;;-140.56;34.93
10482;BME280;5288;42.334;23.876;2023-07-20T10:14:41;55563.34;;;-140.56;34.05
10482;BME280;5288;42.334;23.876;2023-07-20T10:17:12;55545.56;;;-140.56;34.02
10482;BME280;5288;42.334;23.876;2023-07-20T10:19:43;55531.72;;;-140.56;34.69
10482;BME280;5288;42.334;23.876;2023-07-20T10:22:17;55531.72;;;-140.56;35.02
10482;BME280;5288;42.334;23.876;2023-07-20T10:24:46;55517.91;;;-140.56;34.93
10482;BME280;5288;42.334;23.876;2023-07-20T10:27:14;55533.69;;;-140.56;34.71
10482;BME280;5288;42.334;23.876;2023-07-20T10:29:41;55531.72;;;-140.56;33.47
10482;BME280;5288;42.334;23.876;2023-07-20T10:32:09;55508.00;;;-140.56;32.91
10482;BME280;5288;42.334;23.876;2023-07-20T10:34:36;55500.09;;;-140.56;33.84
10482;BME280;5288;42.334;23.876;2023-07-20T10:37:09;55498.13;;;-140.56;33.27
10482;BME280;5288;42.334;23.876;2023-07-20T10:39:36;55529.75;;;-140.56;34.59
10482;BME280;5288;42.334;23.876;2023-07-20T10:42:07;55533.69;;;-140.56;35.17
10482;BME280;5288;42.334;23.876;2023-07-20T10:44:34;55533.69;;;-140.56;34.72
10482;BME280;5288;42.334;23.876;2023-07-20T10:47:08;55508.00;;;-140.56;34.41
10482;BME280;5288;42.334;23.876;2023-07-20T10:49:58;55523.81;;;-140.56;33.99
10482;BME280;5288;42.334;23.876;2023-07-20T10:52:36;55547.53;;;-140.56;33.51
10482;BME280;5288;42.334;23.876;2023-07-20T10:55:10;55517.91;;;-140.56;33.95
10482;BME280;5288;42.334;23.876;2023-07-20T10:57:38;55508.00;;;-140.56;33.23
10482;BME280;5288;42.334;23.876;2023-07-20T11:00:10;55547.53;;;-140.56;32.71
10482;BME280;5288;42.334;23.876;2023-07-20T11:02:48;55551.47;;;-140.56;33.01
10482;BME280;5288;42.334;23.876;2023-07-20T11:05:38;55545.56;;;-140.56;32.83
10482;BME280;5288;42.334;23.876;2023-07-20T11:08:10;55577.16;;;-140.56;33.95
10482;BME280;5288;42.334;23.876;2023-07-20T11:10:37;55545.56;;;-140.56;33.80
10482;BME280;5288;42.334;23.876;2023-07-20T11:13:19;55549.50;;;-140.56;34.38
10482;BME280;5288;42.334;23.876;2023-07-20T11:15:47;55533.69;;;-140.56;34.24
10482;BME280;5288;42.334;23.876;2023-07-20T11:18:21;55563.34;;;-140.56;34.34
10482;BME280;5288;42.334;23.876;2023-07-20T11:20:53;55539.63;;;-140.56;34.22
10482;BME280;5288;42.334;23.876;2023-07-20T11:23:23;55541.59;;;-140.56;34.11
10482;BME280;5288;42.334;23.876;2023-07-20T11:25:50;55523.81;;;-140.56;34.68
10482;BME280;5288;42.334;23.876;2023-07-20T11:28:17;55543.56;;;-140.56;34.73
10482;BME280;5288;42.334;23.876;2023-07-20T11:30:44;55555.44;;;-140.56;34.00
10482;BME280;5288;42.334;23.876;2023-07-20T11:33:11;55573.22;;;-140.56;35.13
10482;BME280;5288;42.334;23.876;2023-07-20T11:35:43;55515.91;;;-140.56;35.69
10482;BME280;5288;42.334;23.876;2023-07-20T11:38:13;55470.47;;;-140.56;34.89
10482;BME280;5288;42.334;23.876;2023-07-20T11:40:45;55510.00;;;-140.56;35.01
10482;BME280;5288;42.334;23.876;2023-07-20T11:43:13;55474.41;;;-140.56;34.10
10482;BME280;5288;42.334;23.876;2023-07-20T11:45:42;55474.41;;;-140.56;33.63
10482;BME280;5288;42.334;23.876;2023-07-20T11:48:20;55450.72;;;-140.56;33.79
10482;BME280;5288;42.334;23.876;2023-07-20T11:51:01;55519.88;;;-140.56;35.77
10482;BME280;5288;42.334;23.876;2023-07-20T11:53:28;55502.09;;;-140.56;35.02
10482;BME280;5288;42.334;23.876;2023-07-20T11:55:58;55506.03;;;-140.56;33.98
10482;BME280;5288;42.334;23.876;2023-07-20T11:58:29;55527.78;;;-140.56;34.21
10482;BME280;5288;42.334;23.876;2023-07-20T12:00:56;55511.97;;;-140.56;34.23
10482;BME280;5288;42.334;23.876;2023-07-20T12:03:23;55508.00;;;-140.56;34.00
10482;BME280;5288;42.334;23.876;2023-07-20T12:05:51;55508.00;;;-140.56;34.54
10482;BME280;5288;42.334;23.876;2023-07-20T12:08:18;55502.09;;;-140.56;34.15
10482;BME280;5288;42.334;23.876;2023-07-20T12:10:45;55488.25;;;-140.56;34.42
10482;BME280;5288;42.334;23.876;2023-07-20T12:13:14;55508.00;;;-140.56;33.93
10482;BME280;5288;42.334;23.876;2023-07-20T12:15:41;55480.34;;;-140.56;33.47
10482;BME280;5288;42.334;23.876;2023-07-20T12:20:59;55438.84;;;-140.56;34.21
10482;BME280;5288;42.334;23.876;2023-07-20T12:23:26;55446.75;;;-140.56;34.93
10482;BME280;5288;42.334;23.876;2023-07-20T12:25:53;55432.94;;;-140.56;35.17
10482;BME280;5288;42.334;23.876;2023-07-20T12:28:25;55427.00;;;-140.56;33.25
10482;BME280;5288;42.334;23.876;2023-07-20T12:30:56;55423.06;;;-140.56;33.62
10482;BME280;5288;42.334;23.876;2023-07-20T12:33:23;55444.78;;;-140.56;32.60
10482;BME280;5288;42.334;23.876;2023-07-20T12:35:50;55399.34;;;-140.56;33.80
10482;BME280;5288;42.334;23.876;2023-07-20T12:38:21;55419.09;;;-140.56;32.45
10482;BME280;5288;42.334;23.876;2023-07-20T12:40:48;55383.53;;;-140.56;31.97
10482;BME280;5288;42.334;23.876;2023-07-20T12:43:15;55405.25;;;-140.56;32.84
10482;BME280;5288;42.334;23.876;2023-07-20T12:45:44;55432.94;;;-140.56;31.96
10482;BME280;5288;42.334;23.876;2023-07-20T12:48:20;55434.91;;;-140.56;31.74
10482;BME280;5288;42.334;23.876;2023-07-20T12:50:47;55454.66;;;-140.56;32.76